LPAZ/SMA METAR and TAF weather

Enter ICAO airport designator
Station Type Date Time Source
LPAZ METAR 2020/11/28 19:30 UTC NOAA

LPAZ 281930Z 33023KT 9999 SCT028 FEW032TCU 13/07 Q1022


Station Type Date Time Source
LPAZ Decoded METAR 2020/11/28 19:30 UTC NOAA

Santa Maria Acores , Portugal (LPAZ) 36-58N 025-10W 100M
Nov 28, 2020 - 02:30 PM EST / 2020.11.28 1930 UTC
Wind: from the NNW (330 degrees) at 26 MPH (23 KT):0
Visibility: greater than 7 mile(s):0
Sky conditions: partly cloudy
Weather: Towering cumulus clouds observed
Temperature: 55 F (13 C)
Dew Point: 44 F (7 C)
Relative Humidity: 66%
Pressure (altimeter): 30.18 in. Hg (1022 hPa)
ob: LPAZ 281930Z 33023KT 9999 SCT028 FEW032TCU 13/07 Q1022
cycle: 19

Station Type Date Time Source
LPAZ TAF 2020/11/28 18:18 UTC NOAA

TAF TAF LPAZ 281700Z 2818/2924 34020KT 9999 SCT020 SCT035
TEMPO 2818/2824 34025G37KT PROB30
TEMPO 2818/2924 8000 SHRA BKN012 FEW018TCU
BECMG 2900/2903 34022G34KT
TEMPO 2903/2924 34030G43KT PROB30
TEMPO 2906/2915 34035G50KT

Example: see airport list